Terminal Aerodrome Forecast
Issued by NWS

Home | Current Version | Previous Version | Text Only | Print | Product List | Glossary On
Versions: 1 2 3 4 5 6 7 8 9 10 11 12 13 14 15 16 17 18
000
FTUS43 KTOP 050115 AAA
TAFMHK
TAF AMD
KMHK 050115Z 0501/0524 20002KT 4SM BR MIFG SKC
      TEMPO 0501/0504 2SM BR MIFG
     FM050800 19005KT 6SM BR SKC
     FM051500 20015G24KT P6SM FEW250=

USA.gov is the U.S. government's official web portal to all federal, state and local government web resources and services.